createdAt,value
2018-07-27T00:02:02.630Z,28.03
2018-07-27T00:04:31.120Z,28.01
2018-07-27T00:07:00.004Z,27.97
2018-07-27T00:09:28.655Z,27.94
2018-07-27T00:11:57.451Z,27.90
2018-07-27T00:14:26.245Z,27.87
2018-07-27T00:16:54.876Z,27.86
2018-07-27T00:19:23.358Z,27.84
2018-07-27T00:21:51.964Z,27.83
2018-07-27T00:24:20.436Z,27.81
2018-07-27T00:26:48.869Z,27.80
2018-07-27T00:29:17.315Z,27.78
2018-07-27T00:31:45.778Z,27.76
2018-07-27T00:34:14.306Z,27.75
2018-07-27T00:36:43.059Z,27.73
2018-07-27T00:39:11.584Z,27.70
2018-07-27T00:41:41.239Z,27.67
2018-07-27T00:44:09.767Z,27.64
2018-07-27T00:46:38.211Z,27.62
2018-07-27T00:49:06.830Z,27.60
2018-07-27T00:51:35.448Z,27.57
2018-07-27T00:54:04.053Z,27.50
2018-07-27T00:56:32.684Z,27.47
2018-07-27T00:59:01.513Z,27.47
2018-07-27T01:01:30.126Z,27.48
2018-07-27T01:03:58.566Z,27.47
2018-07-27T01:06:27.028Z,27.44
2018-07-27T01:08:55.728Z,27.44
2018-07-27T01:11:24.234Z,27.41
2018-07-27T01:13:52.696Z,27.39
2018-07-27T01:16:21.388Z,27.37
2018-07-27T01:18:49.943Z,27.36
2018-07-27T01:21:18.422Z,27.34
2018-07-27T01:23:47.095Z,27.31
2018-07-27T01:26:15.560Z,27.26
2018-07-27T01:28:45.073Z,27.23
2018-07-27T01:31:13.680Z,27.22
2018-07-27T01:33:42.272Z,27.20
2018-07-27T01:36:10.901Z,27.17
2018-07-27T01:38:39.347Z,27.14
2018-07-27T01:41:08.576Z,27.11
2018-07-27T01:43:37.009Z,27.05
2018-07-27T01:46:05.445Z,27.00
2018-07-27T01:48:33.906Z,26.96
2018-07-27T01:51:02.590Z,26.95
2018-07-27T01:53:31.315Z,26.94
2018-07-27T01:55:59.879Z,26.91
2018-07-27T01:58:28.519Z,26.90
2018-07-27T02:00:57.007Z,26.85
2018-07-27T02:03:25.710Z,26.84
2018-07-27T02:05:54.398Z,26.81
2018-07-27T02:08:22.921Z,26.74
2018-07-27T02:10:51.376Z,26.70
2018-07-27T02:13:19.811Z,26.69
2018-07-27T02:15:48.548Z,26.65
2018-07-27T02:18:17.241Z,26.63
2018-07-27T02:20:46.032Z,26.62
2018-07-27T02:23:14.493Z,26.58
2018-07-27T02:25:43.314Z,26.53
2018-07-27T02:28:11.944Z,26.51
2018-07-27T02:30:40.398Z,26.51
2018-07-27T02:33:09.065Z,26.50
2018-07-27T02:35:37.810Z,26.47
2018-07-27T02:38:06.935Z,26.43
2018-07-27T02:40:35.362Z,26.36
2018-07-27T02:43:03.926Z,26.29
2018-07-27T02:45:33.109Z,26.25
2018-07-27T02:48:01.874Z,26.22
2018-07-27T02:50:30.656Z,26.18
2018-07-27T02:52:59.090Z,26.14
2018-07-27T02:55:27.577Z,26.10
2018-07-27T02:57:56.036Z,26.10
2018-07-27T03:00:24.506Z,26.11
2018-07-27T03:02:53.563Z,26.07
2018-07-27T03:05:22.004Z,26.05
2018-07-27T03:07:50.702Z,26.04
2018-07-27T03:10:19.155Z,26.02
2018-07-27T03:12:47.738Z,25.98
2018-07-27T03:15:17.052Z,25.93
2018-07-27T03:17:45.654Z,25.89
2018-07-27T03:20:14.168Z,25.85
2018-07-27T03:22:43.082Z,25.86
2018-07-27T03:25:11.781Z,25.83
2018-07-27T03:27:40.705Z,25.79
2018-07-27T03:30:09.736Z,25.76
2018-07-27T03:32:38.247Z,25.73
2018-07-27T03:35:07.162Z,25.72
2018-07-27T03:37:36.133Z,25.72
2018-07-27T03:40:06.084Z,25.70
2018-07-27T03:42:34.934Z,25.68
2018-07-27T03:45:03.916Z,25.67
2018-07-27T03:47:32.524Z,25.66
2018-07-27T03:50:01.612Z,25.66
2018-07-27T03:52:30.947Z,25.64
2018-07-27T03:54:59.933Z,25.61
2018-07-27T03:57:29.313Z,25.58
2018-07-27T03:59:58.405Z,25.59
2018-07-27T04:02:27.653Z,25.59
2018-07-27T04:04:56.604Z,25.61
2018-07-27T04:07:26.358Z,25.57
2018-07-27T04:09:55.394Z,25.51
2018-07-27T04:12:24.658Z,25.54
2018-07-27T04:14:54.701Z,25.58
2018-07-27T04:17:24.653Z,25.60
2018-07-27T04:19:54.019Z,25.62
2018-07-27T04:22:23.065Z,25.63
2018-07-27T04:24:52.553Z,25.61
2018-07-27T04:27:21.544Z,25.56
2018-07-27T04:29:50.468Z,25.56
2018-07-27T04:32:20.215Z,25.56
2018-07-27T04:34:49.290Z,25.58
2018-07-27T04:37:18.227Z,25.62
2018-07-27T04:39:47.089Z,25.62
2018-07-27T04:42:16.104Z,25.62
2018-07-27T04:44:45.049Z,25.62
2018-07-27T04:47:13.959Z,25.60
2018-07-27T04:49:42.994Z,25.62
2018-07-27T04:52:12.046Z,25.61
2018-07-27T04:54:41.267Z,25.62
2018-07-27T04:57:10.443Z,25.61
2018-07-27T04:59:39.392Z,25.61
2018-07-27T05:02:08.145Z,25.63
2018-07-27T05:04:37.861Z,25.64
2018-07-27T05:07:06.833Z,25.68
2018-07-27T05:09:36.426Z,25.69
2018-07-27T05:12:05.649Z,25.72
2018-07-27T05:14:34.877Z,25.73
2018-07-27T05:17:04.132Z,25.74
2018-07-27T05:19:32.868Z,25.76
2018-07-27T05:22:02.020Z,25.74
2018-07-27T05:24:30.887Z,25.76
2018-07-27T05:26:59.747Z,25.80
2018-07-27T05:29:34.169Z,25.83
2018-07-27T05:32:03.065Z,25.83
2018-07-27T05:34:31.833Z,25.89
2018-07-27T05:37:00.793Z,25.94
2018-07-27T05:39:29.538Z,25.94
2018-07-27T05:41:58.183Z,25.91
2018-07-27T05:44:27.092Z,25.90
2018-07-27T05:46:55.955Z,25.88
2018-07-27T05:49:29.773Z,25.89
2018-07-27T05:51:58.897Z,25.91
2018-07-27T05:54:27.537Z,25.93
2018-07-27T05:56:56.379Z,25.95
2018-07-27T05:59:25.110Z,25.97
2018-07-27T06:01:53.762Z,25.99
2018-07-27T06:04:22.422Z,26.03
2018-07-27T06:06:51.407Z,26.06
2018-07-27T06:09:21.618Z,26.09
2018-07-27T06:11:51.561Z,26.13
2018-07-27T06:14:20.558Z,26.17
2018-07-27T06:34:13.201Z,26.56
2018-07-27T06:36:41.938Z,26.63
2018-07-27T06:39:11.849Z,26.68
2018-07-27T06:41:41.241Z,26.74
2018-07-27T06:44:10.779Z,26.83
2018-07-27T06:46:39.932Z,26.90
2018-07-27T06:49:11.098Z,26.97
2018-07-27T06:51:40.370Z,27.05
2018-07-27T06:54:09.434Z,27.13
2018-07-27T06:56:38.239Z,27.22
2018-07-27T06:59:06.865Z,27.28
2018-07-27T07:01:35.526Z,27.34
2018-07-27T07:04:04.369Z,27.40
2018-07-27T07:06:33.118Z,27.46
2018-07-27T07:09:02.144Z,27.50
2018-07-27T07:11:31.053Z,27.55
2018-07-27T07:14:00.280Z,27.61
2018-07-27T07:16:29.041Z,27.66
2018-07-27T07:18:57.769Z,27.74
2018-07-27T07:21:27.170Z,27.81
2018-07-27T07:23:56.676Z,27.87
2018-07-27T07:26:25.766Z,27.92
2018-07-27T07:28:54.609Z,28.00
2018-07-27T07:31:23.339Z,28.05
2018-07-27T07:33:52.142Z,28.12
2018-07-27T07:36:21.765Z,28.19
2018-07-27T07:38:51.559Z,28.26
2018-07-27T07:41:21.258Z,28.35
2018-07-27T07:43:50.539Z,28.42
2018-07-27T07:46:19.560Z,28.48
2018-07-27T07:48:48.542Z,28.57
2018-07-27T07:51:17.189Z,28.68
2018-07-27T07:53:46.452Z,28.75
2018-07-27T07:56:15.415Z,28.83
2018-07-27T07:58:49.402Z,29.01
2018-07-27T08:01:18.122Z,29.05
2018-07-27T08:03:46.937Z,29.07
2018-07-27T08:06:15.916Z,29.15
2018-07-27T08:08:44.691Z,29.22
2018-07-27T08:11:13.574Z,29.25
2018-07-27T08:13:42.198Z,29.30
2018-07-27T08:16:11.632Z,29.37
2018-07-27T08:18:40.252Z,29.43
2018-07-27T08:21:12.225Z,29.50
2018-07-27T08:23:41.507Z,29.57
2018-07-27T08:26:39.058Z,29.67
2018-07-27T08:29:09.454Z,29.77
2018-07-27T08:31:39.145Z,29.85
2018-07-27T08:34:07.939Z,29.90
2018-07-27T08:36:37.299Z,29.95
2018-07-27T08:39:10.592Z,30.03
2018-07-27T08:41:44.687Z,30.13
2018-07-27T08:44:15.214Z,30.22
2018-07-27T08:46:44.455Z,30.29
2018-07-27T08:49:13.611Z,30.36
2018-07-27T08:51:42.862Z,30.39
2018-07-27T08:54:12.013Z,30.45
2018-07-27T08:56:42.543Z,30.55
2018-07-27T08:59:11.383Z,30.64
2018-07-27T09:01:40.661Z,30.74
2018-07-27T09:04:09.718Z,30.86
2018-07-27T09:06:39.107Z,30.92
2018-07-27T09:09:10.382Z,31.04
2018-07-27T09:11:39.656Z,31.14
2018-07-27T09:14:08.381Z,31.27
2018-07-27T09:16:37.282Z,31.33
2018-07-27T09:19:06.057Z,31.42
2018-07-27T09:21:34.960Z,31.58
2018-07-27T09:24:04.585Z,31.79
2018-07-27T09:26:33.739Z,31.95
2018-07-27T09:29:02.796Z,32.05
2018-07-27T09:31:31.920Z,32.15
2018-07-27T09:34:01.035Z,32.26
2018-07-27T09:36:30.757Z,32.38
2018-07-27T09:38:59.760Z,32.50
2018-07-27T09:41:28.854Z,32.62
2018-07-27T09:43:57.705Z,32.77
2018-07-27T09:46:27.128Z,32.88
2018-07-27T09:48:56.245Z,32.92
2018-07-27T09:51:25.719Z,32.97
2018-07-27T09:53:55.182Z,33.09
2018-07-27T09:56:24.537Z,33.20
2018-07-27T09:58:53.458Z,33.30
2018-07-27T10:01:23.322Z,33.40
2018-07-27T10:03:53.351Z,33.47
2018-07-27T10:06:22.602Z,33.51
2018-07-27T10:08:51.731Z,33.62
2018-07-27T10:11:20.918Z,33.76
2018-07-27T10:13:50.275Z,33.80
2018-07-27T10:16:19.341Z,33.84
2018-07-27T10:18:48.573Z,33.90
2018-07-27T10:21:17.731Z,34.04
2018-07-27T10:23:46.559Z,34.13
2018-07-27T10:26:15.868Z,34.18
2018-07-27T10:28:45.636Z,34.22
2018-07-27T10:31:14.702Z,34.32
2018-07-27T10:33:43.776Z,34.40
2018-07-27T10:36:17.884Z,34.48
2018-07-27T10:38:47.171Z,34.58
2018-07-27T10:41:16.102Z,34.74
2018-07-27T10:43:45.699Z,34.87
2018-07-27T10:46:14.830Z,35.02
2018-07-27T10:48:44.197Z,35.07
2018-07-27T10:51:13.726Z,35.19
2018-07-27T10:53:43.218Z,35.30
2018-07-27T10:56:12.759Z,35.37
2018-07-27T10:58:42.013Z,35.56
2018-07-27T11:01:11.040Z,35.79
2018-07-27T11:03:40.206Z,35.93
2018-07-27T11:06:09.298Z,36.01
2018-07-27T11:08:38.751Z,36.05
2018-07-27T11:11:08.418Z,36.18
2018-07-27T11:13:37.669Z,36.27
2018-07-27T11:16:06.643Z,36.37
2018-07-27T11:18:36.292Z,36.47
2018-07-27T11:21:06.397Z,36.56
2018-07-27T11:23:35.328Z,36.62
2018-07-27T11:26:04.632Z,36.66
2018-07-27T11:28:33.652Z,36.58
2018-07-27T11:31:03.215Z,36.72
2018-07-27T11:33:33.391Z,36.84
2018-07-27T11:36:03.607Z,36.97
2018-07-27T11:38:33.051Z,37.09
2018-07-27T11:41:04.127Z,37.23
2018-07-27T11:43:33.349Z,37.29
2018-07-27T11:46:02.599Z,37.34
2018-07-27T11:48:31.852Z,37.42
2018-07-27T11:51:01.117Z,37.61
2018-07-27T11:53:30.259Z,37.83
2018-07-27T11:56:00.063Z,38.06
2018-07-27T11:58:29.205Z,38.14
2018-07-27T12:00:58.537Z,38.14
2018-07-27T12:03:28.387Z,38.17
2018-07-27T12:05:57.783Z,38.32
2018-07-27T12:08:27.322Z,38.46
2018-07-27T12:10:59.731Z,38.49
2018-07-27T12:13:28.891Z,38.35
2018-07-27T12:15:58.412Z,38.34
2018-07-27T12:18:27.635Z,38.37
2018-07-27T12:20:57.465Z,38.43
2018-07-27T12:23:26.373Z,38.65
2018-07-27T12:25:55.091Z,38.95
2018-07-27T12:28:24.017Z,39.35
2018-07-27T12:30:53.098Z,39.95
2018-07-27T12:33:22.199Z,40.67
2018-07-27T12:35:51.449Z,41.30
2018-07-27T12:38:20.404Z,41.44
2018-07-27T12:40:49.220Z,41.29
2018-07-27T12:43:18.824Z,41.25
2018-07-27T12:45:47.793Z,41.08
2018-07-27T12:48:17.105Z,40.93
2018-07-27T12:50:46.394Z,40.89
2018-07-27T12:53:15.566Z,40.82
2018-07-27T12:55:44.722Z,40.87
2018-07-27T12:58:13.753Z,40.89
2018-07-27T13:00:43.140Z,40.68
2018-07-27T13:03:12.441Z,40.75
2018-07-27T13:05:41.817Z,40.86
2018-07-27T13:08:10.799Z,40.81
2018-07-27T13:10:39.836Z,40.82
2018-07-27T13:13:09.029Z,40.81
2018-07-27T13:15:38.422Z,40.56
2018-07-27T13:18:07.615Z,40.54
2018-07-27T13:20:46.249Z,40.57
2018-07-27T13:23:15.528Z,40.53
2018-07-27T13:30:49.467Z,40.71
2018-07-27T13:33:19.297Z,40.77
2018-07-27T13:35:48.409Z,40.85
2018-07-27T13:38:17.169Z,40.80
2018-07-27T13:40:46.408Z,40.78
2018-07-27T13:43:15.415Z,40.81
2018-07-27T13:45:44.227Z,40.89
2018-07-27T13:48:13.251Z,40.89
2018-07-27T13:50:42.593Z,40.85
2018-07-27T13:53:11.721Z,40.79
2018-07-27T13:55:41.453Z,40.74
2018-07-27T13:58:14.729Z,40.73
2018-07-27T14:00:43.762Z,40.73
2018-07-27T14:03:12.899Z,40.61
2018-07-27T14:05:41.814Z,40.70
2018-07-27T14:08:11.230Z,40.73
2018-07-27T14:10:40.580Z,40.76
2018-07-27T14:13:10.345Z,40.84
2018-07-27T14:15:39.480Z,40.96
2018-07-27T14:18:08.231Z,40.87
2018-07-27T14:20:37.199Z,40.71
2018-07-27T14:23:06.201Z,40.58
2018-07-27T14:25:35.190Z,40.43
2018-07-27T14:28:03.903Z,40.42
2018-07-27T14:30:32.612Z,40.46
2018-07-27T14:33:01.363Z,40.54
2018-07-27T14:35:30.654Z,40.63
2018-07-27T14:37:59.340Z,40.74
2018-07-27T14:40:28.295Z,40.61
2018-07-27T14:42:57.071Z,40.60
2018-07-27T14:45:26.736Z,40.58
2018-07-27T14:47:55.793Z,40.56
2018-07-27T14:50:24.607Z,40.63
2018-07-27T14:52:53.856Z,40.48
2018-07-27T14:55:22.847Z,40.45
2018-07-27T14:57:51.721Z,40.51
2018-07-27T15:00:20.795Z,40.63
2018-07-27T15:02:49.857Z,40.63
2018-07-27T15:05:19.349Z,40.58
2018-07-27T15:07:48.331Z,40.46
2018-07-27T15:10:17.201Z,40.37
2018-07-27T15:12:46.005Z,40.32
2018-07-27T15:15:14.958Z,40.29
2018-07-27T15:17:44.022Z,40.25
2018-07-27T15:20:13.321Z,40.37
2018-07-27T15:22:42.568Z,40.47
2018-07-27T15:25:11.832Z,40.50
2018-07-27T15:27:41.200Z,40.54
2018-07-27T15:30:10.018Z,40.61
2018-07-27T15:32:38.964Z,40.55
2018-07-27T15:35:08.062Z,40.50
2018-07-27T15:37:37.159Z,40.66
2018-07-27T15:40:06.662Z,40.71
2018-07-27T15:42:35.904Z,40.63
2018-07-27T15:45:04.777Z,40.49
2018-07-27T15:47:33.829Z,40.51
2018-07-27T15:50:05.714Z,40.63
2018-07-27T15:52:34.302Z,40.68
2018-07-27T15:55:03.729Z,40.62
2018-07-27T15:57:32.661Z,40.66
2018-07-27T16:00:01.573Z,40.69
2018-07-27T16:02:30.538Z,40.55
2018-07-27T16:05:00.494Z,40.55
2018-07-27T16:07:29.307Z,40.64
2018-07-27T16:09:58.126Z,40.62
2018-07-27T16:12:27.552Z,40.51
2018-07-27T16:14:56.713Z,40.47
2018-07-27T16:17:25.693Z,40.46
2018-07-27T16:19:54.495Z,40.42
2018-07-27T16:22:23.146Z,40.37
2018-07-27T16:24:52.488Z,40.25
2018-07-27T16:27:21.590Z,40.13
2018-07-27T16:29:50.531Z,40.15
2018-07-27T16:32:19.632Z,39.93
2018-07-27T16:34:48.397Z,39.66
2018-07-27T16:37:17.157Z,39.75
2018-07-27T16:39:46.183Z,39.72
2018-07-27T16:42:14.820Z,39.64
2018-07-27T16:44:43.628Z,39.44
2018-07-27T16:47:12.468Z,39.29
2018-07-27T16:49:47.983Z,39.19
2018-07-27T16:52:17.035Z,39.17
2018-07-27T16:54:45.845Z,39.04
2018-07-27T16:57:17.759Z,38.89
2018-07-27T16:59:46.588Z,38.67
2018-07-27T17:02:15.795Z,38.51
2018-07-27T17:04:44.556Z,38.31
2018-07-27T17:07:13.700Z,38.26
2018-07-27T17:09:42.559Z,38.05
2018-07-27T17:12:11.700Z,37.94
2018-07-27T17:14:40.691Z,37.76
2018-07-27T17:17:09.718Z,37.56
2018-07-27T17:19:38.707Z,37.50
2018-07-27T17:22:07.774Z,37.38
2018-07-27T17:24:36.634Z,37.31
2018-07-27T17:27:05.469Z,37.20
2018-07-27T17:29:34.624Z,37.10
2018-07-27T17:32:03.605Z,37.02
2018-07-27T17:34:32.363Z,36.92
2018-07-27T17:37:01.481Z,36.82
2018-07-27T17:39:30.369Z,36.79
2018-07-27T17:41:59.513Z,36.75
2018-07-27T17:44:29.256Z,36.74
2018-07-27T17:46:58.274Z,36.64
2018-07-27T17:49:26.985Z,36.49
2018-07-27T17:51:55.893Z,36.38
2018-07-27T17:54:25.109Z,36.28
2018-07-27T17:56:53.795Z,36.20
2018-07-27T17:59:22.460Z,36.08
2018-07-27T18:01:51.507Z,35.97
2018-07-27T18:04:20.317Z,35.90
2018-07-27T18:06:49.004Z,35.82
2018-07-27T18:09:18.126Z,35.73
2018-07-27T18:11:47.137Z,35.68
2018-07-27T18:14:15.773Z,35.63
2018-07-27T18:16:44.618Z,35.61
2018-07-27T18:19:13.433Z,35.50
2018-07-27T18:21:42.256Z,35.41
2018-07-27T18:24:11.206Z,35.39
2018-07-27T18:26:40.241Z,35.37
2018-07-27T18:29:09.151Z,35.35
2018-07-27T18:31:38.379Z,35.34
2018-07-27T18:34:07.266Z,35.31
2018-07-27T18:36:36.192Z,35.26
2018-07-27T18:39:06.980Z,35.22
2018-07-27T18:41:36.059Z,35.15
2018-07-27T18:44:05.136Z,35.04
2018-07-27T18:46:34.124Z,34.92
2018-07-27T18:49:03.229Z,34.80
2018-07-27T18:51:32.182Z,34.73
2018-07-27T18:54:01.049Z,34.66
2018-07-27T18:56:30.652Z,34.58
2018-07-27T18:58:59.321Z,34.48
2018-07-27T19:01:28.513Z,34.39
2018-07-27T19:03:57.413Z,34.30
2018-07-27T19:06:26.033Z,34.18
2018-07-27T19:08:54.839Z,34.11
2018-07-27T19:11:24.304Z,34.00
2018-07-27T19:13:53.398Z,33.91
2018-07-27T19:16:22.694Z,33.80
2018-07-27T19:18:51.679Z,33.73
2018-07-27T19:21:25.600Z,33.72
2018-07-27T19:23:55.367Z,33.69
2018-07-27T19:26:24.555Z,33.61
2018-07-27T19:28:53.673Z,33.51
2018-07-27T19:31:22.503Z,33.42
2018-07-27T19:33:51.188Z,33.40
2018-07-27T19:36:20.140Z,33.35
2018-07-27T19:38:48.826Z,33.34
2018-07-27T19:41:17.725Z,33.30
2018-07-27T19:43:52.085Z,33.28
2018-07-27T19:46:21.040Z,33.25
2018-07-27T19:48:49.839Z,33.21
2018-07-27T19:51:18.467Z,33.16
2018-07-27T19:53:47.073Z,33.13
2018-07-27T19:56:15.633Z,33.06
2018-07-27T19:58:50.872Z,32.95
2018-07-27T20:01:19.584Z,32.88
2018-07-27T20:03:48.028Z,32.81
2018-07-27T20:06:17.167Z,32.76
2018-07-27T20:08:45.657Z,32.71
2018-07-27T20:11:14.230Z,32.68
2018-07-27T20:13:42.761Z,32.58
2018-07-27T20:16:11.406Z,32.47
2018-07-27T20:18:39.823Z,32.38
2018-07-27T20:21:12.048Z,32.22
2018-07-27T20:23:40.623Z,32.08
2018-07-27T20:26:09.285Z,32.07
2018-07-27T20:28:41.100Z,32.04
2018-07-27T20:31:09.551Z,31.98
2018-07-27T20:33:38.248Z,31.94
2018-07-27T20:36:06.732Z,31.88
2018-07-27T20:38:35.668Z,31.80
2018-07-27T20:41:04.352Z,31.72
2018-07-27T20:43:33.333Z,31.66
2018-07-27T20:46:01.792Z,31.60
2018-07-27T20:48:30.369Z,31.53
2018-07-27T20:50:58.807Z,31.46
2018-07-27T20:53:27.262Z,31.37
2018-07-27T20:55:55.706Z,31.29
2018-07-27T20:58:24.196Z,31.24
2018-07-27T21:00:52.825Z,31.18
2018-07-27T21:03:21.315Z,31.12
2018-07-27T21:05:49.781Z,31.04
2018-07-27T21:08:18.385Z,30.99
2018-07-27T21:10:47.071Z,30.93
2018-07-27T21:13:15.632Z,30.87
2018-07-27T21:15:44.113Z,30.82
2018-07-27T21:18:13.724Z,30.77
2018-07-27T21:20:42.267Z,30.72
2018-07-27T21:23:10.684Z,30.64
2018-07-27T21:25:43.443Z,30.58
2018-07-27T21:28:11.920Z,30.52
2018-07-27T21:30:40.374Z,30.45
2018-07-27T21:33:08.776Z,30.38
2018-07-27T21:35:41.508Z,30.32
2018-07-27T21:38:10.684Z,30.27
2018-07-27T21:40:39.209Z,30.24
2018-07-27T21:43:07.596Z,30.20
2018-07-27T21:45:37.016Z,30.16
2018-07-27T21:48:05.764Z,30.13
2018-07-27T21:50:34.841Z,30.10
2018-07-27T21:53:03.456Z,30.04
2018-07-27T21:55:32.880Z,29.98
2018-07-27T21:58:01.438Z,29.96
2018-07-27T22:00:32.870Z,29.91
2018-07-27T22:03:02.401Z,29.87
2018-07-27T22:05:30.980Z,29.83
2018-07-27T22:07:59.665Z,29.77
2018-07-27T22:10:28.282Z,29.74
2018-07-27T22:12:57.513Z,29.71
2018-07-27T22:15:26.829Z,29.69
2018-07-27T22:17:55.303Z,29.67
2018-07-27T22:20:24.800Z,29.66
2018-07-27T22:22:53.525Z,29.67
2018-07-27T22:25:22.301Z,29.67
2018-07-27T22:27:50.783Z,29.67
2018-07-27T22:30:19.301Z,29.66
2018-07-27T22:32:47.786Z,29.63
2018-07-27T22:35:16.284Z,29.60
2018-07-27T22:37:44.752Z,29.60
2018-07-27T22:40:14.071Z,29.60
2018-07-27T22:42:42.582Z,29.55
2018-07-27T22:45:11.353Z,29.53
2018-07-27T22:47:40.712Z,29.48
2018-07-27T22:50:09.349Z,29.46
2018-07-27T22:52:40.914Z,29.43
2018-07-27T22:55:12.612Z,29.34
2018-07-27T22:57:42.738Z,29.25
2018-07-27T23:00:13.435Z,29.23
2018-07-27T23:02:42.565Z,29.19
2018-07-27T23:05:11.751Z,29.13
2018-07-27T23:07:41.306Z,29.10
2018-07-27T23:10:10.885Z,29.07
2018-07-27T23:12:39.890Z,29.04
2018-07-27T23:15:11.544Z,29.04
2018-07-27T23:17:40.095Z,28.98
2018-07-27T23:20:11.174Z,28.93
2018-07-27T23:22:39.616Z,28.86
2018-07-27T23:25:08.628Z,28.77
2018-07-27T23:27:37.949Z,28.72
2018-07-27T23:30:08.901Z,28.69
2018-07-27T23:32:37.609Z,28.66
2018-07-27T23:35:06.953Z,28.66
2018-07-27T23:37:35.741Z,28.63
2018-07-27T23:40:04.912Z,28.62
2018-07-27T23:42:33.629Z,28.60
2018-07-27T23:45:02.393Z,28.56
2018-07-27T23:47:31.000Z,28.49
2018-07-27T23:49:59.416Z,28.47
2018-07-27T23:52:28.029Z,28.48
2018-07-27T23:54:56.531Z,28.52
2018-07-27T23:57:25.848Z,28.52
2018-07-27T23:59:54.306Z,28.38
